Mount Gilead, Ohio
Current Conditions -  °F | °C
As of 7:53 PM on Monday 24 Nov 2014 (Local Time) from KMNN Reporting Station
Overcast Overcast  
Wind Chill: 33°   Ceiling: 3900
Heat Index: 42°   Visibility: 10mi
Dew Point: 30°   Wind: 23mph
Humidity: 62%   Direction: 250°WSW
Pressure: 29.75"   Gusts: 33mph
Location:  40.55°N, 82.83°W
Report Text: KMNN 250053Z AUTO 25020G29KT 10SM FEW030 BKN039 OVC046 06/M01 A2975 RMK AO2 PK WND 25033/0032 SLP076 T00561011 TSNO
Loading
Personal Weather Stations






























Interactive Weather Map New forecast layout! Learn more

10-Day Weather Forecast

Advertisements
Track Severe Weather on mobile